createdAt,value
2018-03-14T00:00:10.806Z,10.54
2018-03-14T00:02:38.291Z,10.58
2018-03-14T00:05:05.751Z,10.60
2018-03-14T00:07:33.249Z,10.56
2018-03-14T00:10:00.735Z,10.55
2018-03-14T00:12:28.326Z,10.53
2018-03-14T00:14:55.891Z,10.46
2018-03-14T00:17:23.379Z,10.51
2018-03-14T00:19:50.876Z,10.49
2018-03-14T00:22:30.342Z,10.44
2018-03-14T00:27:31.608Z,10.47
2018-03-14T00:29:59.065Z,10.40
2018-03-14T00:32:26.543Z,10.40
2018-03-14T00:34:54.043Z,10.39
2018-03-14T00:37:21.504Z,10.42
2018-03-14T00:39:48.979Z,10.38
2018-03-14T00:42:16.470Z,10.32
2018-03-14T00:44:44.060Z,10.34
2018-03-14T00:47:11.527Z,10.31
2018-03-14T00:49:39.043Z,10.33
2018-03-14T00:52:06.542Z,10.26
2018-03-14T00:54:34.078Z,10.29
2018-03-14T00:57:01.569Z,10.16
2018-03-14T00:59:29.071Z,10.13
2018-03-14T01:01:56.590Z,10.08
2018-03-14T01:04:24.059Z,10.07
2018-03-14T01:06:51.527Z,10.01
2018-03-14T01:09:18.999Z,10.00
2018-03-14T01:11:46.464Z,10.02
2018-03-14T01:14:13.949Z,9.93
2018-03-14T01:16:41.524Z,9.89
2018-03-14T01:19:08.980Z,9.85
2018-03-14T01:21:36.438Z,9.74
2018-03-14T01:24:03.922Z,9.74
2018-03-14T01:26:32.940Z,9.69
2018-03-14T01:29:00.404Z,9.77
2018-03-14T01:31:27.878Z,9.69
2018-03-14T01:33:55.334Z,9.69
2018-03-14T01:36:22.795Z,9.69
2018-03-14T01:38:50.313Z,9.73
2018-03-14T01:41:17.766Z,9.67
2018-03-14T01:43:46.120Z,9.65
2018-03-14T01:46:13.640Z,9.72
2018-03-14T01:48:41.348Z,9.70
2018-03-14T01:51:08.816Z,9.68
2018-03-14T01:53:36.279Z,9.66
2018-03-14T01:56:03.767Z,9.59
2018-03-14T01:58:31.231Z,9.61
2018-03-14T02:00:58.676Z,9.68
2018-03-14T02:03:26.155Z,9.73
2018-03-14T02:05:53.619Z,9.73
2018-03-14T02:08:21.112Z,9.74
2018-03-14T02:10:48.594Z,9.71
2018-03-14T02:13:16.074Z,9.72
2018-03-14T02:15:43.534Z,9.68
2018-03-14T02:18:11.014Z,9.66
2018-03-14T02:20:38.508Z,9.63
2018-03-14T02:23:06.008Z,9.70
2018-03-14T02:25:33.499Z,9.68
2018-03-14T02:28:00.998Z,9.69
2018-03-14T02:30:28.559Z,9.64
2018-03-14T02:32:56.019Z,9.66
2018-03-14T02:35:23.493Z,9.60
2018-03-14T02:37:50.955Z,9.66
2018-03-14T02:40:18.440Z,9.69
2018-03-14T02:42:46.075Z,9.72
2018-03-14T02:45:13.939Z,9.64
2018-03-14T02:47:41.394Z,9.57
2018-03-14T02:50:08.872Z,9.65
2018-03-14T02:52:36.312Z,9.69
2018-03-14T02:55:03.792Z,9.60
2018-03-14T02:57:31.292Z,9.62
2018-03-14T02:59:58.748Z,9.57
2018-03-14T03:02:26.226Z,9.52
2018-03-14T03:04:53.706Z,9.57
2018-03-14T03:07:21.151Z,9.59
2018-03-14T03:09:48.627Z,9.52
2018-03-14T03:12:16.082Z,9.50
2018-03-14T03:14:43.544Z,9.55
2018-03-14T03:17:11.020Z,9.49
2018-03-14T03:19:38.470Z,9.51
2018-03-14T03:22:05.915Z,9.52
2018-03-14T03:24:33.388Z,9.43
2018-03-14T03:27:00.876Z,9.50
2018-03-14T03:29:28.321Z,9.47
2018-03-14T03:31:55.785Z,9.47
2018-03-14T03:34:23.244Z,9.54
2018-03-14T03:36:50.769Z,9.48
2018-03-14T03:39:18.359Z,9.51
2018-03-14T03:41:45.816Z,9.53
2018-03-14T03:44:13.337Z,9.46
2018-03-14T03:46:40.834Z,9.32
2018-03-14T03:49:08.289Z,9.34
2018-03-14T03:51:35.740Z,9.37
2018-03-14T03:54:04.043Z,9.39
2018-03-14T03:56:31.893Z,9.38
2018-03-14T03:58:59.329Z,9.34
2018-03-14T04:01:26.767Z,9.35
2018-03-14T04:03:54.221Z,9.30
2018-03-14T04:06:21.677Z,9.30
2018-03-14T04:08:49.154Z,9.26
2018-03-14T04:11:16.603Z,9.09
2018-03-14T04:13:44.062Z,9.11
2018-03-14T04:16:11.529Z,9.13
2018-03-14T04:18:39.019Z,9.02
2018-03-14T04:21:07.783Z,9.00
2018-03-14T04:23:35.240Z,8.94
2018-03-14T04:26:02.743Z,8.93
2018-03-14T04:28:30.938Z,8.89
2018-03-14T04:30:58.410Z,8.81
2018-03-14T04:33:25.867Z,8.73
2018-03-14T04:35:53.347Z,8.74
2018-03-14T04:38:20.815Z,8.75
2018-03-14T04:40:48.316Z,8.79
2018-03-14T04:43:15.835Z,8.79
2018-03-14T04:45:43.287Z,8.77
2018-03-14T04:48:10.747Z,8.72
2018-03-14T04:50:38.220Z,8.70
2018-03-14T04:53:05.676Z,8.75
2018-03-14T04:55:33.123Z,8.72
2018-03-14T04:58:00.587Z,8.78
2018-03-14T05:00:28.079Z,8.71
2018-03-14T05:02:55.549Z,8.73
2018-03-14T05:05:23.056Z,8.63
2018-03-14T05:07:50.511Z,8.67
2018-03-14T05:10:17.995Z,8.61
2018-03-14T05:12:46.465Z,8.63
2018-03-14T05:15:13.965Z,8.61
2018-03-14T05:17:41.454Z,8.58
2018-03-14T05:20:08.956Z,8.56
2018-03-14T05:22:37.396Z,8.59
2018-03-14T05:25:04.857Z,8.55
2018-03-14T05:27:32.340Z,8.54
2018-03-14T05:29:59.833Z,8.52
2018-03-14T05:32:27.505Z,8.45
2018-03-14T05:34:55.040Z,8.43
2018-03-14T05:37:22.537Z,8.45
2018-03-14T05:39:50.009Z,8.49
2018-03-14T05:42:17.490Z,8.45
2018-03-14T05:44:44.919Z,8.52
2018-03-14T05:47:12.875Z,8.52
2018-03-14T05:49:40.348Z,8.56
2018-03-14T05:52:07.810Z,8.62
2018-03-14T05:54:35.281Z,8.66
2018-03-14T05:57:02.767Z,8.65
2018-03-14T05:59:30.216Z,8.70
2018-03-14T06:01:57.674Z,8.66
2018-03-14T06:04:25.132Z,8.60
2018-03-14T06:06:52.774Z,8.66
2018-03-14T06:09:20.363Z,8.63
2018-03-14T06:11:47.811Z,8.63
2018-03-14T06:14:15.345Z,8.62
2018-03-14T06:16:42.819Z,8.62
2018-03-14T06:19:10.294Z,8.64
2018-03-14T06:21:37.747Z,8.71
2018-03-14T06:24:05.199Z,8.78
2018-03-14T06:26:32.750Z,8.82
2018-03-14T06:29:00.291Z,8.82
2018-03-14T06:31:27.738Z,8.81
2018-03-14T06:33:55.244Z,8.87
2018-03-14T06:36:22.770Z,8.84
2018-03-14T06:38:51.009Z,8.81
2018-03-14T06:41:18.669Z,8.80
2018-03-14T06:43:46.145Z,8.92
2018-03-14T06:46:13.695Z,8.91
2018-03-14T06:48:41.202Z,8.90
2018-03-14T06:51:08.843Z,8.85
2018-03-14T06:53:36.320Z,8.89
2018-03-14T06:56:03.834Z,8.98
2018-03-14T06:58:43.032Z,8.92
2018-03-14T07:04:29.062Z,8.91
2018-03-14T07:06:56.541Z,9.03
2018-03-14T07:09:24.250Z,9.24
2018-03-14T07:11:52.527Z,9.35
2018-03-14T07:14:21.701Z,9.44
2018-03-14T07:16:49.282Z,9.47
2018-03-14T07:19:16.769Z,9.57
2018-03-14T07:21:44.223Z,9.60
2018-03-14T07:24:11.681Z,9.56
2018-03-14T07:26:39.139Z,9.60
2018-03-14T07:29:06.574Z,9.52
2018-03-14T07:31:34.053Z,9.56
2018-03-14T07:34:01.526Z,9.58
2018-03-14T07:36:29.121Z,9.56
2018-03-14T07:38:56.604Z,9.41
2018-03-14T07:41:24.051Z,9.60
2018-03-14T07:43:51.519Z,9.56
2018-03-14T07:46:19.104Z,9.58
2018-03-14T07:48:46.669Z,9.70
2018-03-14T07:51:14.146Z,9.61
2018-03-14T07:53:41.634Z,9.50
2018-03-14T07:56:09.098Z,9.39
2018-03-14T07:58:36.586Z,9.35
2018-03-14T08:01:04.647Z,9.13
2018-03-14T08:03:32.140Z,9.12
2018-03-14T08:05:59.603Z,9.13
2018-03-14T08:08:27.058Z,8.94
2018-03-14T08:10:54.823Z,8.87
2018-03-14T08:13:22.320Z,8.93
2018-03-14T08:15:49.777Z,8.94
2018-03-14T08:18:17.275Z,8.89
2018-03-14T08:20:44.731Z,8.93
2018-03-14T08:23:12.188Z,8.87
2018-03-14T08:25:39.673Z,8.90
2018-03-14T08:28:07.257Z,9.01
2018-03-14T08:30:34.810Z,8.99
2018-03-14T08:33:04.372Z,9.00
2018-03-14T08:35:31.929Z,8.93
2018-03-14T08:37:59.412Z,8.90
2018-03-14T08:40:27.143Z,9.05
2018-03-14T08:42:54.639Z,9.13
2018-03-14T08:45:22.335Z,9.07
2018-03-14T08:47:49.796Z,9.13
2018-03-14T08:50:17.315Z,9.14
2018-03-14T08:52:44.771Z,9.08
2018-03-14T08:55:12.283Z,8.96
2018-03-14T08:57:39.743Z,8.91
2018-03-14T09:00:07.187Z,8.92
2018-03-14T09:02:34.790Z,8.85
2018-03-14T09:05:02.400Z,8.90
2018-03-14T09:07:29.858Z,9.05
2018-03-14T09:09:57.310Z,9.07
2018-03-14T09:12:24.883Z,9.01
2018-03-14T09:14:52.348Z,8.93
2018-03-14T09:17:19.843Z,9.05
2018-03-14T09:19:47.296Z,9.03
2018-03-14T09:22:14.906Z,8.88
2018-03-14T09:24:42.385Z,8.99
2018-03-14T09:27:09.846Z,9.06
2018-03-14T09:29:37.336Z,8.81
2018-03-14T09:32:04.796Z,8.85
2018-03-14T09:34:32.372Z,8.95
2018-03-14T09:36:59.842Z,8.95
2018-03-14T09:39:27.294Z,8.77
2018-03-14T09:41:54.753Z,8.85
2018-03-14T09:44:22.227Z,8.71
2018-03-14T09:46:49.724Z,8.60
2018-03-14T09:49:17.191Z,8.52
2018-03-14T09:51:44.668Z,8.66
2018-03-14T09:54:12.162Z,8.70
2018-03-14T09:56:39.643Z,8.81
2018-03-14T09:59:07.114Z,8.68
2018-03-14T10:01:34.588Z,8.55
2018-03-14T10:04:03.379Z,8.66
2018-03-14T10:06:30.850Z,8.64
2018-03-14T10:08:58.290Z,8.52
2018-03-14T10:11:25.765Z,8.46
2018-03-14T10:13:53.249Z,8.37
2018-03-14T10:16:20.704Z,8.31
2018-03-14T10:18:48.448Z,8.32
2018-03-14T10:21:16.049Z,8.33
2018-03-14T10:23:43.514Z,8.37
2018-03-14T10:26:11.099Z,8.32
2018-03-14T10:28:38.580Z,8.28
2018-03-14T10:31:06.059Z,8.46
2018-03-14T10:33:33.538Z,8.51
2018-03-14T10:36:01.054Z,8.46
2018-03-14T10:38:28.534Z,8.43
2018-03-14T10:40:56.052Z,8.60
2018-03-14T10:43:23.478Z,8.59
2018-03-14T10:45:50.923Z,8.77
2018-03-14T10:48:18.432Z,8.69
2018-03-14T10:50:45.940Z,8.69
2018-03-14T10:53:13.413Z,8.82
2018-03-14T10:55:40.884Z,9.04
2018-03-14T10:58:08.342Z,9.30
2018-03-14T11:00:41.387Z,9.60
2018-03-14T11:03:14.504Z,10.05
2018-03-14T11:05:41.982Z,9.98
2018-03-14T11:08:09.458Z,9.73
2018-03-14T11:10:36.936Z,9.98
2018-03-14T11:13:04.418Z,9.90
2018-03-14T11:15:31.965Z,9.97
2018-03-14T11:17:59.384Z,10.18
2018-03-14T11:20:26.859Z,10.40
2018-03-14T11:22:54.295Z,10.33
2018-03-14T11:25:21.783Z,10.22
2018-03-14T11:27:49.256Z,10.40
2018-03-14T11:30:16.793Z,10.71
2018-03-14T11:32:44.265Z,10.87
2018-03-14T11:35:11.735Z,10.85
2018-03-14T11:37:39.247Z,10.86
2018-03-14T11:40:06.691Z,10.64
2018-03-14T11:42:34.158Z,10.27
2018-03-14T11:45:01.630Z,10.40
2018-03-14T11:47:29.124Z,10.70
2018-03-14T11:49:56.618Z,10.33
2018-03-14T11:52:24.098Z,10.31
2018-03-14T11:54:51.679Z,10.11
2018-03-14T11:57:19.209Z,10.15
2018-03-14T11:59:46.712Z,10.46
2018-03-14T12:02:14.343Z,10.28
2018-03-14T12:04:41.848Z,10.25
2018-03-14T12:07:09.300Z,10.41
2018-03-14T12:09:36.761Z,10.37
2018-03-14T12:12:04.231Z,10.43
2018-03-14T12:14:32.408Z,10.31
2018-03-14T12:16:59.871Z,10.27
2018-03-14T12:19:27.319Z,10.18
2018-03-14T12:21:54.816Z,10.29
2018-03-14T12:24:22.277Z,10.12
2018-03-14T12:26:49.735Z,9.84
2018-03-14T12:29:17.221Z,9.89
2018-03-14T12:31:44.683Z,9.93
2018-03-14T12:34:12.123Z,9.89
2018-03-14T12:36:39.592Z,9.70
2018-03-14T12:39:07.067Z,9.76
2018-03-14T12:41:34.582Z,10.06
2018-03-14T12:44:02.045Z,10.16
2018-03-14T12:46:29.829Z,10.29
2018-03-14T12:48:57.359Z,10.30
2018-03-14T12:51:24.831Z,10.22
2018-03-14T12:53:52.345Z,10.34
2018-03-14T12:56:19.840Z,10.24
2018-03-14T12:58:47.488Z,10.29
2018-03-14T13:01:14.960Z,10.29
2018-03-14T13:03:43.155Z,10.03
2018-03-14T13:06:10.692Z,10.00
2018-03-14T13:08:38.374Z,10.32
2018-03-14T13:11:05.840Z,10.28
2018-03-14T13:13:33.303Z,10.51
2018-03-14T13:16:00.748Z,10.87
2018-03-14T13:18:28.593Z,11.55
2018-03-14T13:20:56.070Z,11.40
2018-03-14T13:23:23.576Z,10.94
2018-03-14T13:25:51.043Z,10.77
2018-03-14T13:28:18.586Z,10.69
2018-03-14T13:30:47.746Z,10.76
2018-03-14T13:33:16.241Z,10.72
2018-03-14T13:35:43.748Z,10.43
2018-03-14T13:38:11.242Z,10.49
2018-03-14T13:40:38.699Z,10.43
2018-03-14T13:43:06.182Z,10.47
2018-03-14T13:45:33.675Z,10.33
2018-03-14T13:48:01.145Z,10.41
2018-03-14T13:50:28.977Z,10.65
2018-03-14T13:52:56.558Z,10.86
2018-03-14T13:55:24.006Z,10.58
2018-03-14T13:57:51.472Z,10.97
2018-03-14T14:00:18.993Z,10.93
2018-03-14T14:02:46.484Z,10.85
2018-03-14T14:05:13.994Z,10.80
2018-03-14T14:07:41.490Z,10.62
2018-03-14T14:10:09.032Z,10.62
2018-03-14T14:12:36.499Z,10.56
2018-03-14T14:15:03.998Z,10.55
2018-03-14T14:17:31.478Z,10.54
2018-03-14T14:19:58.969Z,10.43
2018-03-14T14:22:26.433Z,10.57
2018-03-14T14:24:53.901Z,10.69
2018-03-14T14:27:21.521Z,10.70
2018-03-14T14:29:48.980Z,10.81
2018-03-14T14:32:17.253Z,11.13
2018-03-14T14:34:44.715Z,11.25
2018-03-14T14:37:12.158Z,10.99
2018-03-14T14:39:39.629Z,10.83
2018-03-14T14:42:07.122Z,10.93
2018-03-14T14:44:34.592Z,11.13
2018-03-14T14:47:02.083Z,10.92
2018-03-14T14:49:29.559Z,10.82
2018-03-14T14:51:57.020Z,10.54
2018-03-14T14:54:25.642Z,10.53
2018-03-14T14:56:53.113Z,10.46
2018-03-14T14:59:20.596Z,10.36
2018-03-14T15:01:48.057Z,10.34
2018-03-14T15:04:15.641Z,10.29
2018-03-14T15:06:43.826Z,10.40
2018-03-14T15:09:11.552Z,10.32
2018-03-14T15:11:39.019Z,10.27
2018-03-14T15:14:06.519Z,9.94
2018-03-14T15:16:33.971Z,9.95
2018-03-14T15:19:01.473Z,10.00
2018-03-14T15:21:29.009Z,10.03
2018-03-14T15:23:56.462Z,10.05
2018-03-14T15:26:23.969Z,10.21
2018-03-14T15:28:51.491Z,10.24
2018-03-14T15:31:18.948Z,10.11
2018-03-14T15:33:46.413Z,10.05
2018-03-14T15:36:13.881Z,9.97
2018-03-14T15:38:41.359Z,9.83
2018-03-14T15:41:08.908Z,9.87
2018-03-14T15:43:36.356Z,9.82
2018-03-14T15:46:03.852Z,9.90
2018-03-14T15:48:31.578Z,9.94
2018-03-14T15:50:59.087Z,9.83
2018-03-14T15:53:26.557Z,9.86
2018-03-14T15:55:54.032Z,10.00
2018-03-14T15:58:21.505Z,10.04
2018-03-14T16:00:49.115Z,9.96
2018-03-14T16:03:18.064Z,9.91
2018-03-14T16:05:45.540Z,9.84
2018-03-14T16:08:13.018Z,9.76
2018-03-14T16:10:40.540Z,9.76
2018-03-14T16:13:08.095Z,9.68
2018-03-14T16:15:35.562Z,9.60
2018-03-14T16:18:03.019Z,9.53
2018-03-14T16:20:30.861Z,9.47
2018-03-14T16:22:58.389Z,9.46
2018-03-14T16:25:25.856Z,9.51
2018-03-14T16:27:53.313Z,9.43
2018-03-14T16:30:21.535Z,9.37
2018-03-14T16:32:49.041Z,9.36
2018-03-14T16:35:16.516Z,9.42
2018-03-14T16:37:43.969Z,9.42
2018-03-14T16:40:11.500Z,9.36
2018-03-14T16:42:39.035Z,9.39
2018-03-14T16:45:06.517Z,9.44
2018-03-14T16:47:34.133Z,9.37
2018-03-14T16:50:01.593Z,9.32
2018-03-14T16:52:29.917Z,9.17
2018-03-14T16:54:57.415Z,8.91
2018-03-14T16:57:24.885Z,8.78
2018-03-14T16:59:52.345Z,8.55
2018-03-14T17:02:19.803Z,8.53
2018-03-14T17:04:47.265Z,8.50
2018-03-14T17:07:14.724Z,8.55
2018-03-14T17:09:42.180Z,8.43
2018-03-14T17:12:09.666Z,8.33
2018-03-14T17:14:38.072Z,8.19
2018-03-14T17:17:05.579Z,8.16
2018-03-14T17:19:33.070Z,8.12
2018-03-14T17:22:00.564Z,8.11
2018-03-14T17:24:29.356Z,8.13
2018-03-14T17:26:56.865Z,8.08
2018-03-14T17:29:24.339Z,8.06
2018-03-14T17:31:52.242Z,8.10
2018-03-14T17:34:19.787Z,8.11
2018-03-14T17:36:47.450Z,8.10
2018-03-14T17:39:15.154Z,8.10
2018-03-14T17:41:42.656Z,8.14
2018-03-14T17:44:10.152Z,8.14
2018-03-14T17:46:37.637Z,8.15
2018-03-14T17:49:05.841Z,8.20
2018-03-14T17:51:33.357Z,8.08
2018-03-14T17:54:00.792Z,7.96
2018-03-14T17:56:28.509Z,7.79
2018-03-14T17:58:55.960Z,7.69
2018-03-14T18:01:23.424Z,7.62
2018-03-14T18:03:50.927Z,7.55
2018-03-14T18:06:18.388Z,7.56
2018-03-14T18:08:45.850Z,7.56
2018-03-14T18:11:13.322Z,7.54
2018-03-14T18:13:40.784Z,7.55
2018-03-14T18:16:08.256Z,7.61
2018-03-14T18:18:35.731Z,7.66
2018-03-14T18:21:03.188Z,7.69
2018-03-14T18:23:30.661Z,7.74
2018-03-14T18:25:58.124Z,7.73
2018-03-14T18:28:25.589Z,7.69
2018-03-14T18:30:53.144Z,7.64
2018-03-14T18:33:20.640Z,7.59
2018-03-14T18:35:48.111Z,7.59
2018-03-14T18:38:17.250Z,7.50
2018-03-14T18:40:44.716Z,7.58
2018-03-14T18:43:12.249Z,7.77
2018-03-14T18:45:39.735Z,7.70
2018-03-14T18:48:07.232Z,7.67
2018-03-14T18:50:34.749Z,7.77
2018-03-14T18:53:02.272Z,7.85
2018-03-14T18:55:29.772Z,7.75
2018-03-14T18:57:57.265Z,7.71
2018-03-14T19:00:27.597Z,7.68
2018-03-14T19:02:55.085Z,7.77
2018-03-14T19:05:22.588Z,7.82
2018-03-14T19:07:50.055Z,7.83
2018-03-14T19:10:17.647Z,7.93
2018-03-14T19:12:45.231Z,7.89
2018-03-14T19:15:12.782Z,7.94
2018-03-14T19:17:40.317Z,7.98
2018-03-14T19:20:07.824Z,7.77
2018-03-14T19:22:37.180Z,7.83
2018-03-14T19:25:04.727Z,7.83
2018-03-14T19:27:32.641Z,7.77
2018-03-14T19:30:05.223Z,7.63
2018-03-14T19:32:32.930Z,7.54
2018-03-14T19:35:00.435Z,7.39
2018-03-14T19:37:27.942Z,7.33
2018-03-14T19:39:55.446Z,7.34
2018-03-14T19:42:23.306Z,7.41
2018-03-14T19:44:50.920Z,7.39
2018-03-14T19:47:18.494Z,7.35
2018-03-14T19:49:45.980Z,7.33
2018-03-14T19:52:14.326Z,7.30
2018-03-14T19:54:41.801Z,7.30
2018-03-14T19:57:09.279Z,7.23
2018-03-14T19:59:36.856Z,7.28
2018-03-14T20:02:04.378Z,7.15
2018-03-14T20:04:32.433Z,7.12
2018-03-14T20:07:00.017Z,7.06
2018-03-14T20:09:27.472Z,7.00
2018-03-14T20:11:55.000Z,6.94
2018-03-14T20:14:22.459Z,6.90
2018-03-14T20:16:49.953Z,6.90
2018-03-14T20:19:17.456Z,6.89
2018-03-14T20:21:44.916Z,6.85
2018-03-14T20:24:12.401Z,6.86
2018-03-14T20:26:39.951Z,6.88
2018-03-14T20:29:07.472Z,6.90
2018-03-14T20:31:34.995Z,6.90
2018-03-14T20:34:02.465Z,6.97
2018-03-14T20:36:32.042Z,6.87
2018-03-14T20:38:59.664Z,6.74
2018-03-14T20:41:27.165Z,6.66
2018-03-14T20:43:54.653Z,6.60
2018-03-14T20:46:24.307Z,6.54
2018-03-14T20:48:51.756Z,6.49
2018-03-14T20:51:19.317Z,6.42
2018-03-14T20:53:46.814Z,6.34
2018-03-14T20:56:15.817Z,6.20
2018-03-14T20:58:43.288Z,6.10
2018-03-14T21:01:10.957Z,5.95
2018-03-14T21:03:38.444Z,5.83
2018-03-14T21:06:05.946Z,5.75
2018-03-14T21:08:37.315Z,5.72
2018-03-14T21:11:04.839Z,5.73
2018-03-14T21:13:32.334Z,5.75
2018-03-14T21:15:59.795Z,5.81
2018-03-14T21:18:28.116Z,5.83
2018-03-14T21:20:55.664Z,5.84
2018-03-14T21:23:23.125Z,5.80
2018-03-14T21:25:50.635Z,5.79
2018-03-14T21:28:19.064Z,5.81
2018-03-14T21:30:46.605Z,5.85
2018-03-14T21:33:15.366Z,5.86
2018-03-14T21:35:42.847Z,5.84
2018-03-14T21:38:10.336Z,5.89
2018-03-14T21:40:37.870Z,5.85
2018-03-14T21:43:05.363Z,5.82
2018-03-14T21:45:33.788Z,5.76
2018-03-14T21:48:01.247Z,5.70
2018-03-14T21:50:29.635Z,5.61
2018-03-14T21:52:57.121Z,5.51
2018-03-14T21:55:36.462Z,5.38
2018-03-14T21:58:03.950Z,5.25
2018-03-14T22:00:31.439Z,5.12
2018-03-14T22:02:59.407Z,5.02
2018-03-14T22:05:26.950Z,4.95
2018-03-14T22:07:54.464Z,4.84
2018-03-14T22:10:22.004Z,4.80
2018-03-14T22:12:49.509Z,4.80
2018-03-14T22:15:17.005Z,4.78
2018-03-14T22:17:44.465Z,4.75
2018-03-14T22:20:11.996Z,4.72
2018-03-14T22:22:39.486Z,4.73
2018-03-14T22:25:06.964Z,4.85
2018-03-14T22:27:34.452Z,4.78
2018-03-14T22:30:01.906Z,4.77
2018-03-14T22:32:29.415Z,4.80
2018-03-14T22:34:56.897Z,4.94
2018-03-14T22:37:24.386Z,4.81
2018-03-14T22:39:51.855Z,4.74
2018-03-14T22:42:19.471Z,4.69
2018-03-14T22:44:46.967Z,4.66
2018-03-14T22:47:14.444Z,4.71
2018-03-14T22:49:41.941Z,4.68
2018-03-14T22:52:09.455Z,4.61
2018-03-14T22:54:36.919Z,4.57
2018-03-14T22:57:04.396Z,4.50
2018-03-14T22:59:31.886Z,4.45
2018-03-14T23:01:59.394Z,4.42
2018-03-14T23:04:27.112Z,4.45
2018-03-14T23:06:54.595Z,4.48
2018-03-14T23:09:22.079Z,4.48
2018-03-14T23:11:49.613Z,4.47
2018-03-14T23:14:17.963Z,4.47
2018-03-14T23:16:45.427Z,4.53
2018-03-14T23:19:13.449Z,4.60
2018-03-14T23:21:40.932Z,4.69
2018-03-14T23:24:08.445Z,4.74
2018-03-14T23:26:35.903Z,4.79
2018-03-14T23:29:03.635Z,4.95
2018-03-14T23:31:31.119Z,5.02
2018-03-14T23:33:58.574Z,5.09
2018-03-14T23:36:26.273Z,5.14
2018-03-14T23:38:53.754Z,5.22
2018-03-14T23:41:21.216Z,5.27
2018-03-14T23:43:48.696Z,5.31
2018-03-14T23:46:18.399Z,5.39
2018-03-14T23:48:46.251Z,5.46
2018-03-14T23:51:13.985Z,5.52
2018-03-14T23:53:41.470Z,5.56
2018-03-14T23:56:08.952Z,5.62
2018-03-14T23:58:36.427Z,5.64
